Latest Weather Observations for Kununurra Airport

IDW60801

Issued at 11:32 pm WST Tuesday 9 February 2016 (issued every 30 minutes, with the page automatically refreshed every 10 minutes)

About weather observations | Map of weather stations | Latest weather observations for WA | Other Formats
Station Details ID: 002056 Name: KUNUNURRA AERO Lat: -15.78 Lon: 128.71 Height: 44.0 m
Data from the previous 72 hours. | See also: Recent months at Kununurra Airport
Date/Time
WST
Temp
°C
App
Temp
°C
Dew
Point
Rel
Hum
%
Delta-T
°C
Wind Press
QNH
hPa
Press
MSL
hPa
Rain
since 9 am
mm
Dir
 
Spd
km/h
Gust
km/h
Spd
kts
Gust
kts
09/11:30pm 27.6 31.8 23.2 77 3.0 NW 6 9 3 5 1008.0 1007.7 0.0
09/11:00pm 27.7 31.7 23.1 76 3.1 NW 7 9 4 5 1008.3 1008.0 0.0
09/10:30pm 28.3 31.5 23.0 73 3.6 N 11 15 6 8 1008.5 1008.2 0.0
09/10:00pm 29.1 31.3 22.6 68 4.4 N 15 19 8 10 1008.3 1008.0 0.0
09/09:30pm 29.6 33.2 23.1 68 4.5 NE 9 13 5 7 1008.2 1007.9 0.0
09/09:00pm 29.7 33.8 23.2 68 4.5 N 7 11 4 6 1007.9 1007.6 0.0
09/08:30pm 30.3 33.9 23.0 65 5.0 NNE 9 13 5 7 1007.7 1007.4 0.0
09/08:00pm 29.6 32.8 23.1 68 4.5 NNE 11 15 6 8 1007.3 1007.0 0.0
09/07:30pm 29.8 32.5 22.8 66 4.8 N 13 17 7 9 1006.8 1006.5 0.0
09/07:00pm 30.4 33.4 22.6 63 5.3 N 11 15 6 8 1006.7 1006.4 0.0
09/06:30pm 31.4 33.3 22.7 60 6.0 N 17 24 9 13 1006.4 1006.1 0.0
09/06:00pm 32.7 35.8 22.8 56 6.8 NE 11 20 6 11 1006.1 1005.8 0.0
09/05:30pm 37.3 40.0 20.6 37 11.3 SSE 7 9 4 5 1005.8 1005.5 0.0
09/05:00pm 37.8 40.1 20.6 36 11.7 SE 9 13 5 7 1005.5 1005.2 0.0
09/04:30pm 38.1 39.9 20.4 35 12.0 SSE 11 15 6 8 1005.3 1005.0 0.0
09/04:00pm 38.6 40.2 19.9 33 12.6 SSE 11 17 6 9 1005.1 1004.8 0.0
09/03:30pm 38.8 40.1 20.1 33 12.6 SSE 13 17 7 9 1005.0 1004.7 0.0
09/03:00pm 39.1 40.9 20.4 34 12.7 S 11 15 6 8 1005.3 1005.0 0.0
09/02:30pm 38.9 39.9 20.2 33 12.6 SE 15 22 8 12 1005.6 1005.3 0.0
09/02:00pm 39.3 41.2 20.5 33 12.8 ESE 11 15 6 8 1005.8 1005.5 0.0
09/01:30pm 39.5 41.1 20.7 33 12.8 SE 13 20 7 11 1006.0 1005.7 0.0
09/01:00pm 38.9 40.1 18.2 30 13.7 S 9 17 5 9 1006.3 1006.0 0.0
09/12:30pm 39.2 41.1 21.4 35 12.2 SE 13 22 7 12 1006.8 1006.5 0.0
09/12:00pm 38.2 38.8 17.6 30 13.5 SE 11 17 6 9 1007.2 1006.9 0.0
09/11:30am 38.6 41.0 20.8 35 12.1 SSE 9 15 5 8 1007.5 1007.2 0.0
09/11:00am 37.4 39.5 20.2 36 11.6 ESE 9 15 5 8 1008.0 1007.7 0.0
09/10:30am 37.6 40.0 20.0 36 11.8 S 7 11 4 6 1008.5 1008.2 0.0
09/10:00am 37.1 41.3 23.5 45 9.5 WSW 7 13 4 7 1008.9 1008.6 0.0
09/09:30am 34.8 38.8 23.8 53 7.7 WSW 9 15 5 8 1009.3 1009.0 0.0
09/09:00am 34.4 37.6 23.7 53 7.5 WSW 13 17 7 9 1009.5 1009.2 0.0
09/08:30am 33.6 36.5 23.9 57 6.8 WSW 15 20 8 11 1009.6 1009.3 0.0
09/08:00am 32.5 36.9 25.6 67 4.9 WSW 13 20 7 11 1009.6 1009.3 0.0
09/07:30am 31.1 36.5 25.2 71 4.2 WNW 6 9 3 5 1009.5 1009.2 0.0
09/07:00am 30.2 37.0 25.5 76 3.3 CALM 0 0 0 0 1009.3 1009.0 0.0
09/06:30am 28.8 35.9 26.0 85 2.0 CALM 0 0 0 0 1009.1 1008.8 0.0
09/06:00am 26.9 33.8 25.7 93 0.8 CALM 0 0 0 0 1008.9 1008.6 0.0
09/05:30am 26.4 32.5 25.0 92 1.0 NNE 2 6 1 3 1008.6 1008.3 0.0
09/05:00am 26.4 32.9 25.0 92 1.0 CALM 0 0 0 0 1008.2 1007.9 0.0
09/04:30am 26.1 32.5 24.9 93 0.8 CALM 0 4 0 2 1007.8 1007.5 0.0
09/04:00am 26.0 31.8 24.6 92 1.0 N 2 7 1 4 1007.6 1007.3 0.0
09/03:30am 26.4 32.0 24.8 91 1.1 N 4 7 2 4 1007.6 1007.3 0.0
09/03:00am 26.1 31.5 24.5 91 1.1 N 4 7 2 4 1007.6 1007.3 0.0
09/02:30am 26.1 31.0 24.3 90 1.2 N 6 7 3 4 1007.5 1007.2 0.0
09/02:00am 27.1 33.5 24.9 88 1.5 CALM 0 0 0 0 1007.5 1007.2 0.0
09/01:30am 26.8 33.0 24.6 88 1.5 CALM 0 0 0 0 1007.4 1007.1 0.0
09/01:00am 27.3 33.6 24.7 86 1.8 CALM 0 0 0 0 1007.6 1007.3 0.0
09/12:30am 27.1 33.4 24.7 87 1.7 CALM 0 0 0 0 1007.8 1007.5 0.0
09/12:00am 28.0 34.6 25.2 85 2.0 CALM 0 0 0 0 1008.0 1007.7 0.0
 
Date/Time
WST
Temp
°C
App
Temp
°C
Dew
Point
Rel
Hum
%
Delta-T
°C
Wind Press
QNH
hPa
Press
MSL
hPa
Rain
since 9 am
mm
Dir
 
Spd
km/h
Gust
km/h
Spd
kts
Gust
kts
08/11:30pm 27.7 34.3 25.3 87 1.7 CALM 0 0 0 0 1008.3 1008.0 0.0
08/11:00pm 27.7 33.8 25.1 86 1.8 WSW 2 7 1 4 1008.6 1008.3 0.0
08/10:30pm 28.2 33.9 25.0 83 2.2 N 4 7 2 4 1008.8 1008.5 0.0
08/10:00pm 28.6 33.3 25.0 81 2.5 N 9 11 5 6 1008.9 1008.6 0.0
08/09:30pm 28.8 32.8 25.0 80 2.7 N 13 15 7 8 1008.8 1008.5 0.0
08/09:00pm 29.0 33.5 25.2 80 2.7 N 11 13 6 7 1008.5 1008.2 0.0
08/08:30pm 29.4 33.7 24.9 77 3.2 N 11 15 6 8 1008.2 1007.9 0.0
08/08:00pm 30.2 33.8 24.4 71 4.1 NNE 13 17 7 9 1008.0 1007.7 0.0
08/07:30pm 30.9 33.2 22.8 62 5.6 N 15 20 8 11 1007.8 1007.5 0.0
08/07:00pm 31.9 36.9 23.2 60 6.0 ENE 2 6 1 3 1007.3 1007.0 0.0
08/06:30pm 33.4 36.7 21.9 51 7.8 E 7 11 4 6 1007.0 1006.7 0.0
08/06:00pm 34.2 36.1 20.6 45 9.2 ESE 11 13 6 7 1006.8 1006.5 0.0
08/05:30pm 35.5 36.3 19.8 39 10.5 E 15 17 8 9 1006.5 1006.2 0.0
08/05:00pm 36.5 36.5 19.0 35 11.6 E 17 20 9 11 1006.2 1005.9 0.0
08/04:30pm 37.0 36.4 18.5 33 12.2 E 19 24 10 13 1006.0 1005.7 0.0
08/04:00pm 37.4 37.2 19.3 34 12.1 E 19 24 10 13 1005.7 1005.4 0.0
08/03:30pm 37.2 36.7 19.2 35 12.0 E 20 26 11 14 1005.7 1005.4 0.0
08/03:00pm 37.4 37.0 18.9 34 12.3 ESE 19 28 10 15 1005.8 1005.5 0.0
08/02:30pm 37.5 37.0 19.0 34 12.3 E 20 28 11 15 1006.0 1005.7 0.0
08/02:00pm 37.2 37.4 20.1 37 11.5 SE 19 30 10 16 1006.3 1006.0 0.0
08/01:30pm 37.3 35.9 18.8 33 12.2 E 24 33 13 18 1006.5 1006.2 0.0
08/01:00pm 37.5 38.3 19.9 35 11.8 ESE 15 24 8 13 1006.7 1006.4 0.0
08/12:30pm 37.2 38.7 20.5 37 11.3 SE 13 20 7 11 1007.1 1006.8 0.0
08/12:00pm 36.8 38.5 20.1 37 11.2 SE 11 19 6 10 1007.6 1007.3 0.0
08/11:30am 36.4 40.1 23.3 47 9.1 E 9 15 5 8 1007.9 1007.6 0.0
08/11:00am 35.9 39.4 22.8 46 9.1 S 9 15 5 8 1008.4 1008.1 0.0
08/10:30am 35.6 40.5 23.6 50 8.4 S 4 9 2 5 1008.8 1008.5 0.0
08/10:00am 34.6 39.6 24.8 56 7.0 S 7 15 4 8 1009.0 1008.7 0.0
08/09:30am 33.7 38.4 24.3 58 6.6 SW 7 13 4 7 1009.4 1009.1 0.0
08/09:00am 32.8 38.2 25.1 64 5.5 SSW 6 9 3 5 1009.6 1009.3 0.0
08/08:30am 31.9 37.2 25.0 67 4.9 S 6 9 3 5 1009.8 1009.5 0.0
08/08:00am 31.4 37.3 25.3 70 4.3 SW 4 9 2 5 1009.7 1009.4 0.0
08/07:30am 30.5 37.1 25.8 76 3.3 WNW 2 7 1 4 1009.5 1009.2 0.0
08/07:00am 29.0 34.8 25.8 83 2.3 N 6 6 3 3 1009.3 1009.0 0.0
08/06:30am 28.4 35.6 26.2 88 1.6 CALM 0 0 0 0 1009.4 1009.1 0.0
08/06:00am 27.2 34.8 26.7 97 0.4 CALM 0 0 0 0 1009.1 1008.8 0.0
08/05:30am 25.4 30.7 24.9 97 0.3 NNW 6 7 3 4 1008.9 1008.6 0.0
08/05:00am 25.0 31.0 24.3 96 0.5 CALM 0 0 0 0 1008.6 1008.3 0.0
08/04:30am 25.5 31.6 24.5 94 0.7 CALM 0 0 0 0 1008.2 1007.9 0.0
08/04:00am 26.2 32.5 24.8 92 1.0 CALM 0 0 0 0 1008.1 1007.8 0.0
08/03:30am 26.5 32.9 24.9 91 1.1 CALM 0 0 0 0 1007.9 1007.6 0.0
08/03:14am 26.2 32.5 24.8 92 1.0 CALM 0 0 0 0 1007.9 1007.6 0.0
08/03:00am 26.3 32.7 24.9 92 1.0 CALM 0 0 0 0 1007.9 1007.6 0.0
08/02:53am 26.0 32.2 24.6 92 1.0 CALM 0 0 0 0 1007.9 1007.6 0.0
08/02:30am 26.4 32.9 25.0 92 1.0 CALM 0 0 0 0 1008.0 1007.7 0.0
08/02:00am 26.8 33.3 25.0 90 1.3 CALM 0 0 0 0 1008.0 1007.7 0.0
08/01:30am 26.4 32.6 24.6 90 1.2 CALM 0 0 0 0 1008.0 1007.7 0.0
08/01:00am 26.9 32.8 24.7 88 1.5 NNE 2 6 1 3 1008.3 1008.0 0.0
08/12:30am 27.0 31.6 24.8 88 1.5 NNE 9 9 5 5 1008.8 1008.5 0.0
08/12:00am 27.0 31.9 24.6 87 1.7 N 7 11 4 6 1009.0 1008.7 0.0
 
Date/Time
WST
Temp
°C
App
Temp
°C
Dew
Point
Rel
Hum
%
Delta-T
°C
Wind Press
QNH
hPa
Press
MSL
hPa
Rain
since 9 am
mm
Dir
 
Spd
km/h
Gust
km/h
Spd
kts
Gust
kts
07/11:30pm 27.3 30.9 24.4 84 2.0 N 13 15 7 8 1009.3 1009.0 0.0
07/11:00pm 27.5 31.7 24.1 82 2.4 N 9 13 5 7 1009.5 1009.2 0.0
07/10:30pm 27.6 31.2 23.8 80 2.6 N 11 13 6 7 1009.5 1009.2 0.0
07/10:00pm 28.1 30.3 23.2 74 3.4 N 17 19 9 10 1009.6 1009.3 0.0
07/09:30pm 28.1 31.8 23.2 74 3.4 N 9 11 5 6 1009.4 1009.1 0.0
07/09:00pm 27.9 32.1 23.5 77 3.0 NNW 7 9 4 5 1009.0 1008.7 0.0
07/08:30pm 28.6 32.3 23.3 73 3.6 N 9 13 5 7 1008.7 1008.4 0.0
07/08:00pm 28.9 32.0 23.6 73 3.7 N 13 17 7 9 1008.3 1008.0 0.0
07/07:30pm 30.2 35.5 23.1 65 4.9 CALM 0 9 0 5 1007.9 1007.6 0.0
07/07:00pm 31.0 35.2 20.9 55 6.8 CALM 0 0 0 0 1007.5 1007.2 0.0
07/06:30pm 31.5 35.4 22.5 59 6.2 ENE 6 7 3 4 1007.2 1006.9 0.0
07/06:00pm 33.9 36.2 19.9 43 9.3 E 7 9 4 5 1006.7 1006.4 0.0
07/05:30pm 35.0 37.4 20.9 43 9.5 ESE 9 11 5 6 1006.5 1006.2 0.0
07/05:00pm 36.2 37.2 17.8 33 12.0 SSE 9 13 5 7 1006.1 1005.8 0.0
07/04:30pm 36.7 37.3 18.7 34 11.9 SSE 13 15 7 8 1005.7 1005.4 0.0
07/04:00pm 36.6 37.0 18.2 34 12.1 ESE 13 19 7 10 1005.3 1005.0 0.0
07/03:30pm 37.1 36.9 17.6 31 12.7 SE 15 20 8 11 1005.1 1004.8 0.0
07/03:00pm 37.2 35.9 16.7 29 13.2 SE 19 24 10 13 1005.2 1004.9 0.0
07/02:30pm 36.9 36.4 17.0 31 12.8 ESE 15 22 8 12 1005.4 1005.1 0.0
07/02:00pm 37.6 37.4 17.6 31 13.1 SSE 15 22 8 12 1005.6 1005.3 0.0
07/01:30pm 37.1 36.3 17.1 30 12.9 SE 17 26 9 14 1005.8 1005.5 0.0
07/01:00pm 36.8 39.0 19.7 36 11.5 E 7 17 4 9 1006.1 1005.8 0.0
07/12:30pm 36.6 38.0 19.5 36 11.4 SE 11 17 6 9 1006.6 1006.3 0.0
07/12:00pm 36.1 39.2 21.5 42 10.0 NNE 7 9 4 5 1006.9 1006.6 0.0
07/11:30am 36.0 39.1 21.4 42 10.0 SW 7 13 4 7 1007.2 1006.9 0.0
07/11:00am 35.3 37.9 22.6 47 8.8 E 13 17 7 9 1007.6 1007.3 0.0
07/10:30am 35.2 38.3 21.5 45 9.3 NNW 7 13 4 7 1008.0 1007.7 0.0
07/10:00am 34.8 38.5 22.5 48 8.5 ENE 7 11 4 6 1008.3 1008.0 0.0
07/09:30am 33.9 38.6 23.9 56 7.0 NNE 6 9 3 5 1008.5 1008.2 0.0
07/09:00am 33.0 38.1 24.7 61 5.9 NNE 6 11 3 6 1008.7 1008.4 0.0
07/08:30am 31.9 36.7 24.2 63 5.4 ENE 6 7 3 4 1008.8 1008.5 0.0
07/08:00am 31.4 36.6 24.8 68 4.7 WSW 6 9 3 5 1008.7 1008.4 0.0
07/07:30am 30.2 34.7 24.6 72 3.9 SW 9 13 5 7 1008.6 1008.3 0.0
07/07:00am 29.1 34.3 25.7 82 2.4 SW 9 11 5 6 1008.4 1008.1 0.0
07/06:30am 27.7 33.6 25.9 90 1.3 SW 6 9 3 5 1008.0 1007.7 0.0
07/06:00am 27.4 34.2 26.2 93 0.9 SW 2 6 1 3 1007.8 1007.5 0.0
07/05:30am 26.1 32.4 25.4 96 0.5 WSW 2 7 1 4 1007.7 1007.4 0.0
07/05:00am 26.0 31.3 25.3 96 0.5 WSW 7 9 4 5 1007.4 1007.1 0.0
07/04:30am 26.2 32.7 25.0 93 0.8 CALM 0 6 0 3 1007.4 1007.1 0.0
07/04:00am 26.8 31.8 25.4 92 1.0 E 9 11 5 6 1007.4 1007.1 0.0
07/03:30am 26.7 30.9 25.3 92 1.0 E 13 15 7 8 1007.4 1007.1 0.0
07/03:00am 27.2 32.1 25.2 89 1.4 SE 9 11 5 6 1007.2 1006.9 0.0
07/02:30am 27.2 32.6 25.2 89 1.4 E 6 7 3 4 1007.1 1006.8 0.0
07/02:00am 27.5 33.7 24.6 84 2.0 CALM 0 0 0 0 1006.8 1006.5 0.0
07/01:30am 27.1 33.4 24.7 87 1.7 CALM 0 0 0 0 1006.8 1006.5 0.0
07/01:00am 27.4 33.9 25.0 87 1.7 CALM 0 0 0 0 1007.0 1006.7 0.0
07/12:30am 26.9 32.2 24.9 89 1.4 WSW 6 7 3 4 1007.0 1006.7 0.0
07/12:00am 27.3 32.4 24.6 85 1.9 N 6 7 3 4 1007.2 1006.9 0.0

Other Formats:

Comma delimited format used in spreadsheet applications
http://www.bom.gov.au/fwo/IDW60801/IDW60801.94216.axf

JavaScript Object Notation format (JSON) in row-major order
http://www.bom.gov.au/fwo/IDW60801/IDW60801.94216.json